sensor_id;sensor_type;location;lat;lon;timestamp;pressure;altitude;pressure_sealevel;temperature;humidity
79678;BME280;69145;45.544;10.214;2023-07-24T00:00:22;99815.72;;;26.58;56.33
79678;BME280;69145;45.544;10.214;2023-07-24T00:02:48;99806.19;;;26.57;56.35
79678;BME280;69145;45.544;10.214;2023-07-24T00:05:13;99799.56;;;26.54;56.45
79678;BME280;69145;45.544;10.214;2023-07-24T00:07:39;99801.16;;;26.55;56.59
79678;BME280;69145;45.544;10.214;2023-07-24T00:10:04;99801.72;;;26.52;56.76
79678;BME280;69145;45.544;10.214;2023-07-24T00:12:30;99805.75;;;26.50;56.73
79678;BME280;69145;45.544;10.214;2023-07-24T00:14:56;99802.59;;;26.48;56.77
79678;BME280;69145;45.544;10.214;2023-07-24T00:17:21;99797.81;;;26.50;56.66
79678;BME280;69145;45.544;10.214;2023-07-24T00:19:47;99807.84;;;26.53;56.97
79678;BME280;69145;45.544;10.214;2023-07-24T00:22:12;99799.38;;;26.51;56.94
79678;BME280;69145;45.544;10.214;2023-07-24T00:24:37;99790.91;;;26.49;57.35
79678;BME280;69145;45.544;10.214;2023-07-24T00:27:03;99786.91;;;26.51;56.62
79678;BME280;69145;45.544;10.214;2023-07-24T00:29:28;99786.59;;;26.53;57.04
79678;BME280;69145;45.544;10.214;2023-07-24T00:31:54;99778.72;;;26.48;56.99
79678;BME280;69145;45.544;10.214;2023-07-24T00:34:20;99786.41;;;26.49;56.89
79678;BME280;69145;45.544;10.214;2023-07-24T00:36:45;99782.72;;;26.45;56.95
79678;BME280;69145;45.544;10.214;2023-07-24T00:39:10;99791.78;;;26.44;57.12
79678;BME280;69145;45.544;10.214;2023-07-24T00:41:36;99785.97;;;26.42;57.13
79678;BME280;69145;45.544;10.214;2023-07-24T00:44:01;99786.75;;;26.43;57.35
79678;BME280;69145;45.544;10.214;2023-07-24T00:46:27;99787.75;;;26.47;57.24
79678;BME280;69145;45.544;10.214;2023-07-24T00:48:57;99800.47;;;26.50;57.60
79678;BME280;69145;45.544;10.214;2023-07-24T00:51:23;99786.31;;;26.54;57.29
79678;BME280;69145;45.544;10.214;2023-07-24T00:53:48;99783.66;;;26.54;57.26
79678;BME280;69145;45.544;10.214;2023-07-24T00:56:13;99786.09;;;26.51;56.97
79678;BME280;69145;45.544;10.214;2023-07-24T00:58:39;99780.22;;;26.54;57.02
79678;BME280;69145;45.544;10.214;2023-07-24T01:01:05;99787.53;;;26.43;57.27
79678;BME280;69145;45.544;10.214;2023-07-24T01:03:33;99789.47;;;26.38;57.88
79678;BME280;69145;45.544;10.214;2023-07-24T01:06:01;99778.94;;;26.33;57.36
79678;BME280;69145;45.544;10.214;2023-07-24T01:08:26;99778.94;;;26.33;57.40
79678;BME280;69145;45.544;10.214;2023-07-24T01:10:52;99768.63;;;26.31;57.67
79678;BME280;69145;45.544;10.214;2023-07-24T01:13:22;99771.28;;;26.31;57.57
79678;BME280;69145;45.544;10.214;2023-07-24T01:15:58;99771.56;;;26.30;57.58
79678;BME280;69145;45.544;10.214;2023-07-24T01:18:28;99758.16;;;26.21;57.70
79678;BME280;69145;45.544;10.214;2023-07-24T01:20:56;99772.69;;;26.24;57.82
79678;BME280;69145;45.544;10.214;2023-07-24T01:23:44;99771.72;;;26.20;57.59
79678;BME280;69145;45.544;10.214;2023-07-24T01:26:12;99767.38;;;26.24;57.74
79678;BME280;69145;45.544;10.214;2023-07-24T01:28:37;99768.69;;;26.26;57.74
79678;BME280;69145;45.544;10.214;2023-07-24T01:31:04;99780.09;;;26.27;57.61
79678;BME280;69145;45.544;10.214;2023-07-24T01:33:30;99764.66;;;26.29;57.92
79678;BME280;69145;45.544;10.214;2023-07-24T01:36:01;99759.34;;;26.29;57.74
79678;BME280;69145;45.544;10.214;2023-07-24T01:38:28;99767.06;;;26.30;57.76
79678;BME280;69145;45.544;10.214;2023-07-24T01:40:56;99758.31;;;26.30;57.97
79678;BME280;69145;45.544;10.214;2023-07-24T01:43:22;99771.47;;;26.35;57.67
79678;BME280;69145;45.544;10.214;2023-07-24T01:45:48;99763.31;;;26.31;57.80
79678;BME280;69145;45.544;10.214;2023-07-24T01:48:13;99768.41;;;26.28;58.12
79678;BME280;69145;45.544;10.214;2023-07-24T01:50:38;99759.34;;;26.29;57.82
79678;BME280;69145;45.544;10.214;2023-07-24T01:53:04;99753.56;;;26.27;57.61
79678;BME280;69145;45.544;10.214;2023-07-24T01:55:29;99765.75;;;26.28;58.08
79678;BME280;69145;45.544;10.214;2023-07-24T01:57:54;99776.06;;;26.29;57.63
79678;BME280;69145;45.544;10.214;2023-07-24T02:00:20;99768.91;;;26.30;58.27
79678;BME280;69145;45.544;10.214;2023-07-24T02:02:45;99763.09;;;26.28;58.13
79678;BME280;69145;45.544;10.214;2023-07-24T02:05:10;99766.75;;;26.32;58.18
79678;BME280;69145;45.544;10.214;2023-07-24T02:07:36;99763.91;;;26.28;58.12
79678;BME280;69145;45.544;10.214;2023-07-24T02:10:01;99757.00;;;26.27;57.78
79678;BME280;69145;45.544;10.214;2023-07-24T02:12:27;99746.69;;;26.26;58.01
79678;BME280;69145;45.544;10.214;2023-07-24T02:14:52;99738.94;;;26.29;58.04
79678;BME280;69145;45.544;10.214;2023-07-24T02:17:18;99741.59;;;26.29;57.95
79678;BME280;69145;45.544;10.214;2023-07-24T02:19:44;99737.16;;;26.25;58.40
79678;BME280;69145;45.544;10.214;2023-07-24T02:22:10;99725.03;;;26.19;58.42
79678;BME280;69145;45.544;10.214;2023-07-24T02:24:38;99718.94;;;26.18;58.70
79678;BME280;69145;45.544;10.214;2023-07-24T02:27:05;99729.28;;;26.20;58.93
79678;BME280;69145;45.544;10.214;2023-07-24T02:29:30;99714.94;;;26.21;58.38
79678;BME280;69145;45.544;10.214;2023-07-24T02:31:57;99706.47;;;26.19;58.29
79678;BME280;69145;45.544;10.214;2023-07-24T02:34:23;99703.22;;;26.22;58.55
79678;BME280;69145;45.544;10.214;2023-07-24T02:36:52;99700.38;;;26.18;58.79
79678;BME280;69145;45.544;10.214;2023-07-24T02:39:18;99698.81;;;26.17;58.36
79678;BME280;69145;45.544;10.214;2023-07-24T02:41:43;99692.34;;;26.23;58.25
79678;BME280;69145;45.544;10.214;2023-07-24T02:44:09;99692.16;;;26.20;58.40
79678;BME280;69145;45.544;10.214;2023-07-24T02:46:34;99691.06;;;26.21;58.39
79678;BME280;69145;45.544;10.214;2023-07-24T02:49:03;99682.09;;;26.17;58.25
79678;BME280;69145;45.544;10.214;2023-07-24T02:51:31;99671.13;;;26.23;57.90
79678;BME280;69145;45.544;10.214;2023-07-24T02:53:57;99675.44;;;26.19;58.25
79678;BME280;69145;45.544;10.214;2023-07-24T02:56:22;99664.03;;;26.19;58.20
79678;BME280;69145;45.544;10.214;2023-07-24T02:58:50;99645.69;;;26.22;57.81
79678;BME280;69145;45.544;10.214;2023-07-24T03:01:16;99645.03;;;26.30;58.03
79678;BME280;69145;45.544;10.214;2023-07-24T03:03:41;99661.72;;;26.31;57.86
79678;BME280;69145;45.544;10.214;2023-07-24T03:06:09;99666.16;;;26.35;57.77
79678;BME280;69145;45.544;10.214;2023-07-24T03:08:35;99660.94;;;26.30;57.75
79678;BME280;69145;45.544;10.214;2023-07-24T03:11:00;99671.56;;;26.30;58.07
79678;BME280;69145;45.544;10.214;2023-07-24T03:13:27;99668.31;;;26.33;58.19
79678;BME280;69145;45.544;10.214;2023-07-24T03:15:57;99680.22;;;26.36;57.86
79678;BME280;69145;45.544;10.214;2023-07-24T03:18:22;99668.09;;;26.30;58.08
79678;BME280;69145;45.544;10.214;2023-07-24T03:20:48;99669.25;;;26.24;57.98
79678;BME280;69145;45.544;10.214;2023-07-24T03:23:13;99669.84;;;26.21;58.58
79678;BME280;69145;45.544;10.214;2023-07-24T03:25:39;99660.66;;;26.13;58.64
79678;BME280;69145;45.544;10.214;2023-07-24T03:28:04;99660.66;;;26.13;58.54
79678;BME280;69145;45.544;10.214;2023-07-24T03:30:32;99684.75;;;26.17;58.61
79678;BME280;69145;45.544;10.214;2023-07-24T03:32:58;99692.72;;;26.17;58.51
79678;BME280;69145;45.544;10.214;2023-07-24T03:35:23;99697.47;;;26.20;58.38
79678;BME280;69145;45.544;10.214;2023-07-24T03:37:49;99712.78;;;26.23;58.29
79678;BME280;69145;45.544;10.214;2023-07-24T03:40:14;99723.69;;;26.21;58.33
79678;BME280;69145;45.544;10.214;2023-07-24T03:42:41;99724.94;;;26.24;58.45
79678;BME280;69145;45.544;10.214;2023-07-24T03:45:07;99705.84;;;26.27;58.17
79678;BME280;69145;45.544;10.214;2023-07-24T03:47:33;99695.94;;;26.32;58.45
79678;BME280;69145;45.544;10.214;2023-07-24T03:49:58;99699.34;;;26.33;58.39
79678;BME280;69145;45.544;10.214;2023-07-24T03:52:24;99709.97;;;26.33;58.71
79678;BME280;69145;45.544;10.214;2023-07-24T03:54:50;99709.97;;;26.33;58.82
79678;BME280;69145;45.544;10.214;2023-07-24T03:57:16;99702.59;;;26.30;58.19
79678;BME280;69145;45.544;10.214;2023-07-24T03:59:41;99695.00;;;26.23;58.26
79678;BME280;69145;45.544;10.214;2023-07-24T04:02:06;99693.53;;;26.31;58.29
79678;BME280;69145;45.544;10.214;2023-07-24T04:04:32;99689.34;;;26.30;58.85
79678;BME280;69145;45.544;10.214;2023-07-24T04:06:58;99678.94;;;26.33;58.58
79678;BME280;69145;45.544;10.214;2023-07-24T04:09:23;99677.56;;;26.36;58.37
79678;BME280;69145;45.544;10.214;2023-07-24T04:11:48;99687.97;;;26.32;58.04
79678;BME280;69145;45.544;10.214;2023-07-24T04:14:14;99695.56;;;26.39;58.02
79678;BME280;69145;45.544;10.214;2023-07-24T04:16:39;99697.00;;;26.31;58.30
79678;BME280;69145;45.544;10.214;2023-07-24T04:19:04;99703.94;;;26.27;58.32
79678;BME280;69145;45.544;10.214;2023-07-24T04:21:30;99699.72;;;26.26;58.36
79678;BME280;69145;45.544;10.214;2023-07-24T04:23:56;99693.34;;;26.27;58.51
79678;BME280;69145;45.544;10.214;2023-07-24T04:26:21;99699.22;;;26.24;58.86
79678;BME280;69145;45.544;10.214;2023-07-24T04:28:46;99703.19;;;26.27;59.56
79678;BME280;69145;45.544;10.214;2023-07-24T04:31:12;99709.75;;;26.29;58.75
79678;BME280;69145;45.544;10.214;2023-07-24T04:33:38;99725.47;;;26.26;59.03
79678;BME280;69145;45.544;10.214;2023-07-24T04:36:03;99757.94;;;26.18;59.11
79678;BME280;69145;45.544;10.214;2023-07-24T04:38:29;99779.81;;;26.28;59.29
79678;BME280;69145;45.544;10.214;2023-07-24T04:40:54;99787.63;;;26.20;58.93
79678;BME280;69145;45.544;10.214;2023-07-24T04:43:19;99796.06;;;26.22;59.14
79678;BME280;69145;45.544;10.214;2023-07-24T04:45:45;99783.53;;;26.27;58.87
79678;BME280;69145;45.544;10.214;2023-07-24T04:48:10;99773.50;;;26.24;58.46
79678;BME280;69145;45.544;10.214;2023-07-24T04:50:36;99767.81;;;26.31;58.61
79678;BME280;69145;45.544;10.214;2023-07-24T04:53:01;99752.28;;;26.24;59.01
79678;BME280;69145;45.544;10.214;2023-07-24T04:55:26;99746.47;;;26.22;58.79
79678;BME280;69145;45.544;10.214;2023-07-24T04:57:52;99740.38;;;26.22;59.07
79678;BME280;69145;45.544;10.214;2023-07-24T05:00:17;99721.59;;;26.18;59.29
79678;BME280;69145;45.544;10.214;2023-07-24T05:02:42;99705.19;;;26.16;59.60
79678;BME280;69145;45.544;10.214;2023-07-24T05:05:08;99701.16;;;26.19;59.81
79678;BME280;69145;45.544;10.214;2023-07-24T05:07:34;99705.41;;;26.20;59.84
79678;BME280;69145;45.544;10.214;2023-07-24T05:09:59;99699.53;;;26.23;59.94
79678;BME280;69145;45.544;10.214;2023-07-24T05:12:25;99677.00;;;26.20;59.72
79678;BME280;69145;45.544;10.214;2023-07-24T05:14:50;99669.41;;;26.14;59.64
79678;BME280;69145;45.544;10.214;2023-07-24T05:17:15;99685.25;;;26.19;60.48
79678;BME280;69145;45.544;10.214;2023-07-24T05:19:41;99702.75;;;26.20;59.98
79678;BME280;69145;45.544;10.214;2023-07-24T05:22:06;99714.34;;;26.24;60.22
79678;BME280;69145;45.544;10.214;2023-07-24T05:24:33;99743.00;;;26.22;59.65
79678;BME280;69145;45.544;10.214;2023-07-24T05:26:58;99753.84;;;26.25;60.71
79678;BME280;69145;45.544;10.214;2023-07-24T05:29:24;99755.94;;;26.28;59.57
79678;BME280;69145;45.544;10.214;2023-07-24T05:31:49;99724.31;;;26.32;60.14
79678;BME280;69145;45.544;10.214;2023-07-24T05:34:14;99722.88;;;26.39;59.66
79678;BME280;69145;45.544;10.214;2023-07-24T05:36:40;99723.31;;;26.46;59.87
79678;BME280;69145;45.544;10.214;2023-07-24T05:39:06;99696.97;;;26.50;59.67
79678;BME280;69145;45.544;10.214;2023-07-24T05:41:31;99640.75;;;26.48;59.37
79678;BME280;69145;45.544;10.214;2023-07-24T05:43:57;99620.78;;;26.50;59.75
79678;BME280;69145;45.544;10.214;2023-07-24T05:46:22;99624.53;;;26.49;60.52
79678;BME280;69145;45.544;10.214;2023-07-24T05:48:48;99632.19;;;26.51;59.40
79678;BME280;69145;45.544;10.214;2023-07-24T05:51:13;99650.28;;;26.49;60.64
79678;BME280;69145;45.544;10.214;2023-07-24T05:53:38;99637.00;;;26.49;59.79
79678;BME280;69145;45.544;10.214;2023-07-24T05:56:04;99636.41;;;26.52;60.71
79678;BME280;69145;45.544;10.214;2023-07-24T05:58:29;99614.63;;;26.55;59.41
79678;BME280;69145;45.544;10.214;2023-07-24T06:00:54;99600.56;;;26.54;59.69
79678;BME280;69145;45.544;10.214;2023-07-24T06:03:23;99600.56;;;26.54;60.16
79678;BME280;69145;45.544;10.214;2023-07-24T06:05:53;99596.34;;;26.53;60.58
79678;BME280;69145;45.544;10.214;2023-07-24T06:08:22;99594.94;;;26.56;60.54
79678;BME280;69145;45.544;10.214;2023-07-24T06:10:48;99606.38;;;26.56;60.25
79678;BME280;69145;45.544;10.214;2023-07-24T06:13:15;99608.22;;;26.56;59.76
79678;BME280;69145;45.544;10.214;2023-07-24T06:15:41;99602.81;;;26.61;59.68
79678;BME280;69145;45.544;10.214;2023-07-24T06:18:06;99602.34;;;26.59;61.31
79678;BME280;69145;45.544;10.214;2023-07-24T06:20:32;99594.00;;;26.65;60.54
79678;BME280;69145;45.544;10.214;2023-07-24T06:22:57;99591.63;;;26.64;61.94
79678;BME280;69145;45.544;10.214;2023-07-24T06:25:22;99613.09;;;26.68;61.17
79678;BME280;69145;45.544;10.214;2023-07-24T06:27:48;99615.44;;;26.69;61.13
79678;BME280;69145;45.544;10.214;2023-07-24T06:30:13;99618.59;;;26.71;61.54
79678;BME280;69145;45.544;10.214;2023-07-24T06:32:39;99631.28;;;26.74;61.45
79678;BME280;69145;45.544;10.214;2023-07-24T06:35:04;99626.28;;;26.73;62.28
79678;BME280;69145;45.544;10.214;2023-07-24T06:37:30;99602.59;;;26.76;62.54
79678;BME280;69145;45.544;10.214;2023-07-24T06:39:56;99598.53;;;26.79;60.06
79678;BME280;69145;45.544;10.214;2023-07-24T06:42:21;99605.31;;;26.85;60.07
79678;BME280;69145;45.544;10.214;2023-07-24T06:44:46;99601.31;;;26.87;60.72
79678;BME280;69145;45.544;10.214;2023-07-24T06:47:14;99612.13;;;26.91;59.48
79678;BME280;69145;45.544;10.214;2023-07-24T06:49:40;99638.38;;;26.92;59.98
79678;BME280;69145;45.544;10.214;2023-07-24T06:52:06;99649.50;;;26.94;59.58
79678;BME280;69145;45.544;10.214;2023-07-24T06:54:31;99674.84;;;27.00;59.63
79678;BME280;69145;45.544;10.214;2023-07-24T06:56:57;99700.34;;;27.01;59.31
79678;BME280;69145;45.544;10.214;2023-07-24T06:59:23;99735.28;;;27.08;59.71
79678;BME280;69145;45.544;10.214;2023-07-24T07:01:48;99759.34;;;26.98;60.58
79678;BME280;69145;45.544;10.214;2023-07-24T07:04:13;99767.69;;;26.92;60.42
79678;BME280;69145;45.544;10.214;2023-07-24T07:06:39;99746.94;;;26.94;61.39
79678;BME280;69145;45.544;10.214;2023-07-24T07:09:04;99729.25;;;26.89;61.24
79678;BME280;69145;45.544;10.214;2023-07-24T07:11:30;99667.09;;;26.90;61.45
79678;BME280;69145;45.544;10.214;2023-07-24T07:13:55;99600.72;;;26.90;62.47
79678;BME280;69145;45.544;10.214;2023-07-24T07:16:21;99552.72;;;26.87;62.94
79678;BME280;69145;45.544;10.214;2023-07-24T07:18:46;99551.94;;;26.86;64.13
79678;BME280;69145;45.544;10.214;2023-07-24T07:21:12;99541.13;;;26.83;63.29
79678;BME280;69145;45.544;10.214;2023-07-24T07:23:37;99527.34;;;26.81;63.83
79678;BME280;69145;45.544;10.214;2023-07-24T07:26:02;99540.94;;;26.79;64.38
79678;BME280;69145;45.544;10.214;2023-07-24T07:28:28;99559.09;;;26.86;63.50
79678;BME280;69145;45.544;10.214;2023-07-24T07:30:53;99549.78;;;26.88;64.23
79678;BME280;69145;45.544;10.214;2023-07-24T07:33:19;99551.94;;;26.86;64.28
79678;BME280;69145;45.544;10.214;2023-07-24T07:35:47;99565.28;;;26.95;63.47
79678;BME280;69145;45.544;10.214;2023-07-24T07:38:12;99568.34;;;27.02;63.14
79678;BME280;69145;45.544;10.214;2023-07-24T07:40:38;99559.91;;;27.00;62.57
79678;BME280;69145;45.544;10.214;2023-07-24T07:43:04;99556.75;;;26.98;62.74
79678;BME280;69145;45.544;10.214;2023-07-24T07:45:30;99535.22;;;26.99;62.53
79678;BME280;69145;45.544;10.214;2023-07-24T07:47:55;99529.91;;;26.99;62.91
79678;BME280;69145;45.544;10.214;2023-07-24T07:50:20;99509.25;;;26.96;62.74
79678;BME280;69145;45.544;10.214;2023-07-24T07:52:49;99496.19;;;27.00;63.55
79678;BME280;69145;45.544;10.214;2023-07-24T07:55:15;99485.13;;;27.06;63.06
79678;BME280;69145;45.544;10.214;2023-07-24T07:57:40;99463.16;;;27.14;62.25
79678;BME280;69145;45.544;10.214;2023-07-24T08:00:06;99496.13;;;27.13;62.11
79678;BME280;69145;45.544;10.214;2023-07-24T08:02:32;99619.28;;;27.17;61.80
79678;BME280;69145;45.544;10.214;2023-07-24T08:04:58;99724.75;;;27.17;61.66
79678;BME280;69145;45.544;10.214;2023-07-24T08:07:24;99670.94;;;27.11;61.89
79678;BME280;69145;45.544;10.214;2023-07-24T08:09:49;99567.75;;;27.05;63.03
79678;BME280;69145;45.544;10.214;2023-07-24T08:12:14;99573.94;;;27.00;62.67
79678;BME280;69145;45.544;10.214;2023-07-24T08:14:40;99596.88;;;27.10;62.28
79678;BME280;69145;45.544;10.214;2023-07-24T08:17:05;99604.91;;;27.18;61.93
79678;BME280;69145;45.544;10.214;2023-07-24T08:19:30;99589.97;;;27.22;62.35
79678;BME280;69145;45.544;10.214;2023-07-24T08:21:56;99580.13;;;27.09;62.76
79678;BME280;69145;45.544;10.214;2023-07-24T08:24:21;99601.38;;;27.09;63.06
79678;BME280;69145;45.544;10.214;2023-07-24T08:26:47;99617.31;;;27.09;64.08
79678;BME280;69145;45.544;10.214;2023-07-24T08:29:12;99621.63;;;27.05;63.49
79678;BME280;69145;45.544;10.214;2023-07-24T08:31:37;99619.88;;;27.01;63.86
79678;BME280;69145;45.544;10.214;2023-07-24T08:34:12;99627.94;;;27.09;63.68
79678;BME280;69145;45.544;10.214;2023-07-24T08:36:37;99619.47;;;27.07;64.39
79678;BME280;69145;45.544;10.214;2023-07-24T08:39:03;99615.94;;;26.98;64.79
79678;BME280;69145;45.544;10.214;2023-07-24T08:41:28;99623.91;;;26.98;64.00
79678;BME280;69145;45.544;10.214;2023-07-24T08:43:54;99633.16;;;27.01;64.27
79678;BME280;69145;45.544;10.214;2023-07-24T08:46:20;99650.38;;;27.03;64.51
79678;BME280;69145;45.544;10.214;2023-07-24T08:48:46;99671.34;;;27.05;65.11
79678;BME280;69145;45.544;10.214;2023-07-24T08:51:13;99729.56;;;27.01;65.48
79678;BME280;69145;45.544;10.214;2023-07-24T08:53:40;99815.59;;;27.00;65.00
79678;BME280;69145;45.544;10.214;2023-07-24T08:56:07;99868.06;;;27.08;63.18
79678;BME280;69145;45.544;10.214;2023-07-24T08:58:33;99835.59;;;27.11;63.07
79678;BME280;69145;45.544;10.214;2023-07-24T09:01:00;99740.78;;;27.12;63.12
79678;BME280;69145;45.544;10.214;2023-07-24T09:03:26;99723.94;;;27.16;63.55
79678;BME280;69145;45.544;10.214;2023-07-24T09:05:52;99725.34;;;27.14;63.52
79678;BME280;69145;45.544;10.214;2023-07-24T09:08:31;99718.63;;;27.16;63.56
79678;BME280;69145;45.544;10.214;2023-07-24T09:10:58;99699.28;;;27.16;63.90
79678;BME280;69145;45.544;10.214;2023-07-24T09:13:23;99677.94;;;27.21;63.80
79678;BME280;69145;45.544;10.214;2023-07-24T09:15:49;99660.41;;;27.20;63.76
79678;BME280;69145;45.544;10.214;2023-07-24T09:18:14;99654.78;;;27.21;63.58
79678;BME280;69145;45.544;10.214;2023-07-24T09:20:42;99639.94;;;27.20;63.80
79678;BME280;69145;45.544;10.214;2023-07-24T09:23:10;99640.44;;;27.22;63.46
79678;BME280;69145;45.544;10.214;2023-07-24T09:25:37;99645.16;;;27.25;63.15
79678;BME280;69145;45.544;10.214;2023-07-24T09:28:13;99669.16;;;27.20;63.59
79678;BME280;69145;45.544;10.214;2023-07-24T09:30:39;99685.09;;;27.20;63.54
79678;BME280;69145;45.544;10.214;2023-07-24T09:33:05;99687.75;;;27.20;63.33
79678;BME280;69145;45.544;10.214;2023-07-24T09:35:31;99686.19;;;27.19;63.46
79678;BME280;69145;45.544;10.214;2023-07-24T09:38:05;99671.09;;;27.28;63.12
79678;BME280;69145;45.544;10.214;2023-07-24T09:40:45;99641.41;;;27.26;63.09
79678;BME280;69145;45.544;10.214;2023-07-24T09:43:19;99647.59;;;27.22;63.14
79678;BME280;69145;45.544;10.214;2023-07-24T09:45:45;99660.78;;;27.27;62.93
79678;BME280;69145;45.544;10.214;2023-07-24T09:48:12;99648.28;;;27.27;62.89
79678;BME280;69145;45.544;10.214;2023-07-24T09:50:40;99610.59;;;27.25;62.87
79678;BME280;69145;45.544;10.214;2023-07-24T09:53:13;99604.16;;;27.31;62.50
79678;BME280;69145;45.544;10.214;2023-07-24T09:58:29;99596.25;;;27.26;62.92
79678;BME280;69145;45.544;10.214;2023-07-24T10:00:55;99579.03;;;27.24;63.12
79678;BME280;69145;45.544;10.214;2023-07-24T10:03:21;99580.72;;;27.20;63.15
79678;BME280;69145;45.544;10.214;2023-07-24T10:05:48;99580.50;;;27.16;63.25
79678;BME280;69145;45.544;10.214;2023-07-24T10:08:18;99592.44;;;27.19;63.44
79678;BME280;69145;45.544;10.214;2023-07-24T10:10:43;99596.34;;;27.21;63.15
79678;BME280;69145;45.544;10.214;2023-07-24T10:13:09;99583.75;;;27.27;62.82
79678;BME280;69145;45.544;10.214;2023-07-24T10:15:37;99574.03;;;27.22;63.15
79678;BME280;69145;45.544;10.214;2023-07-24T10:18:07;99561.53;;;27.23;63.06
79678;BME280;69145;45.544;10.214;2023-07-24T10:20:41;99540.84;;;27.20;65.09
79678;BME280;69145;45.544;10.214;2023-07-24T10:23:08;99532.72;;;27.16;63.54
79678;BME280;69145;45.544;10.214;2023-07-24T10:25:36;99507.25;;;27.15;64.10
79678;BME280;69145;45.544;10.214;2023-07-24T10:28:06;99486.56;;;27.12;65.17
79678;BME280;69145;45.544;10.214;2023-07-24T10:30:40;99462.59;;;27.17;64.63
79678;BME280;69145;45.544;10.214;2023-07-24T10:33:08;99452.53;;;27.14;64.22
79678;BME280;69145;45.544;10.214;2023-07-24T10:35:45;99453.09;;;27.25;62.97
79678;BME280;69145;45.544;10.214;2023-07-24T10:38:12;99450.53;;;27.33;62.46
79678;BME280;69145;45.544;10.214;2023-07-24T10:40:39;99455.25;;;27.36;61.93
79678;BME280;69145;45.544;10.214;2023-07-24T10:43:09;99449.81;;;27.41;61.38
79678;BME280;69145;45.544;10.214;2023-07-24T10:45:52;99481.06;;;27.44;60.86
79678;BME280;69145;45.544;10.214;2023-07-24T10:48:20;99512.03;;;27.40;61.21
79678;BME280;69145;45.544;10.214;2023-07-24T10:50:49;99529.75;;;27.31;61.83
79678;BME280;69145;45.544;10.214;2023-07-24T10:53:17;99543.03;;;27.31;62.04
79678;BME280;69145;45.544;10.214;2023-07-24T10:55:43;99521.97;;;27.35;61.78
79678;BME280;69145;45.544;10.214;2023-07-24T10:58:09;99511.72;;;27.28;63.92
79678;BME280;69145;45.544;10.214;2023-07-24T11:00:35;99506.22;;;27.25;64.50
79678;BME280;69145;45.544;10.214;2023-07-24T11:03:01;99488.91;;;27.27;62.73
79678;BME280;69145;45.544;10.214;2023-07-24T11:05:26;99523.38;;;27.19;64.36
79678;BME280;69145;45.544;10.214;2023-07-24T11:07:51;99512.84;;;27.14;64.60
79678;BME280;69145;45.544;10.214;2023-07-24T11:10:22;99528.97;;;27.17;65.82
79678;BME280;69145;45.544;10.214;2023-07-24T11:12:48;99524.56;;;27.13;64.33
79678;BME280;69145;45.544;10.214;2023-07-24T11:15:23;99492.50;;;27.09;65.28
79678;BME280;69145;45.544;10.214;2023-07-24T11:17:50;99496.81;;;27.05;66.15
79678;BME280;69145;45.544;10.214;2023-07-24T11:20:15;99486.13;;;26.97;65.72
79678;BME280;69145;45.544;10.214;2023-07-24T11:22:43;99521.94;;;26.99;66.29
79678;BME280;69145;45.544;10.214;2023-07-24T11:25:12;99541.88;;;26.97;66.31
79678;BME280;69145;45.544;10.214;2023-07-24T11:27:39;99564.38;;;27.13;64.23
79678;BME280;69145;45.544;10.214;2023-07-24T11:30:07;99553.97;;;27.16;63.17
79678;BME280;69145;45.544;10.214;2023-07-24T11:32:32;99558.19;;;27.17;65.31
79678;BME280;69145;45.544;10.214;2023-07-24T11:34:58;99537.44;;;27.06;66.68
79678;BME280;69145;45.544;10.214;2023-07-24T11:37:27;99487.00;;;27.06;66.51
79678;BME280;69145;45.544;10.214;2023-07-24T11:40:00;99413.00;;;26.91;66.23
79678;BME280;69145;45.544;10.214;2023-07-24T11:42:39;99397.31;;;27.03;66.27
79678;BME280;69145;45.544;10.214;2023-07-24T11:45:06;99419.53;;;27.07;63.48
79678;BME280;69145;45.544;10.214;2023-07-24T11:47:52;99430.53;;;27.14;63.83
79678;BME280;69145;45.544;10.214;2023-07-24T11:50:19;99430.72;;;27.39;63.59
79678;BME280;69145;45.544;10.214;2023-07-24T11:52:46;99383.75;;;27.26;64.20
79678;BME280;69145;45.544;10.214;2023-07-24T11:55:14;99375.59;;;27.23;64.46
79678;BME280;69145;45.544;10.214;2023-07-24T11:57:40;99345.81;;;27.12;65.06
79678;BME280;69145;45.544;10.214;2023-07-24T12:00:25;99333.84;;;27.23;66.00
79678;BME280;69145;45.544;10.214;2023-07-24T12:02:59;99314.44;;;27.14;66.31
79678;BME280;69145;45.544;10.214;2023-07-24T12:05:25;99339.75;;;27.12;65.52
79678;BME280;69145;45.544;10.214;2023-07-24T12:07:54;99335.84;;;27.18;64.03
79678;BME280;69145;45.544;10.214;2023-07-24T12:10:27;99319.03;;;27.22;63.69
79678;BME280;69145;45.544;10.214;2023-07-24T12:12:54;99290.88;;;27.21;62.48
79678;BME280;69145;45.544;10.214;2023-07-24T12:15:22;99250.28;;;27.21;62.34
79678;BME280;69145;45.544;10.214;2023-07-24T12:17:48;99225.25;;;27.22;62.91
79678;BME280;69145;45.544;10.214;2023-07-24T12:20:13;99182.25;;;27.11;63.55
79678;BME280;69145;45.544;10.214;2023-07-24T12:22:38;99149.25;;;27.04;65.00
79678;BME280;69145;45.544;10.214;2023-07-24T12:25:05;99154.16;;;27.10;65.60
79678;BME280;69145;45.544;10.214;2023-07-24T12:27:31;99174.22;;;26.94;66.57
79678;BME280;69145;45.544;10.214;2023-07-24T12:30:07;99205.94;;;26.99;65.71
79678;BME280;69145;45.544;10.214;2023-07-24T12:32:33;99191.00;;;27.03;64.48
79678;BME280;69145;45.544;10.214;2023-07-24T12:34:58;99167.38;;;27.02;65.16
79678;BME280;69145;45.544;10.214;2023-07-24T12:37:27;99211.56;;;26.98;63.54
79678;BME280;69145;45.544;10.214;2023-07-24T12:39:53;99375.81;;;27.13;62.20
79678;BME280;69145;45.544;10.214;2023-07-24T12:42:18;99588.78;;;27.15;61.46
79678;BME280;69145;45.544;10.214;2023-07-24T12:44:44;99691.56;;;27.14;61.21
79678;BME280;69145;45.544;10.214;2023-07-24T12:47:10;99791.69;;;27.00;62.19
79678;BME280;69145;45.544;10.214;2023-07-24T12:49:36;99739.31;;;26.74;63.44